Terminal Aerodrome Forecast
Issued by NWS Dodge City, KS

Home | Current Version | Previous Version | Text Only | Print | Product List | Glossary On
Versions: 1 2 3 4 5 6 7 8 9 10 11 12 13 14 15 16 17 18 19 20
000
FTUS43 KDDC 082342
TAFDDC
TAF
KDDC 082342Z 0900/0924 VRB05KT P6SM SCT060
     FM091200 15012KT P6SM OVC040
     FM091600 17016G24KT P6SM BKN025
     FM091800 18018G26KT P6SM BKN035
     FM092300 16012KT P6SM SCT150=

USA.gov is the U.S. government's official web portal to all federal, state and local government web resources and services.